SCEL/SCL METAR and TAF weather

Enter ICAO airport designator
Station Type Date Time Source
SCEL METAR 2021/05/10 02:00 UTC NOAA

SCEL 100200Z 21003KT 180V260 CAVOK 11/06 Q1018 NOSIG


Station Type Date Time Source
SCEL Decoded METAR 2021/05/10 02:00 UTC NOAA

Pudahuel, Chile (SCEL) 33-23S 070-47W 476M
May 09, 2021 - 10:00 PM EDT / 2021.05.10 0200 UTC
Wind: from the SSW (210 degrees) at 3 MPH (3 KT) (direction variable):0
Visibility: greater than 7 mile(s):0
Temperature: 51 F (11 C)
Dew Point: 42 F (6 C)
Relative Humidity: 71%
Pressure (altimeter): 30.06 in. Hg (1018 hPa)
ob: SCEL 100200Z 21003KT 180V260 CAVOK 11/06 Q1018 NOSIG
cycle: 2

Station Type Date Time Source
SCEL TAF 2021/05/10 00:00 UTC NOAA

TAF SCEL 092210Z 1000/1024 21005KT CAVOK TX21/1019Z TN06/1010Z
BECMG 1002/1004 16004KT
TEMPO 1008/1014 VRB02KT 7000 NSC
BECMG 1015/1017 18008KT
BECMG 1018/1020 21012KT

Example: see airport list